createdAt,value
2022-09-12T00:00:56.454Z,1011.8
2022-09-12T00:01:56.451Z,1011.8
2022-09-12T00:02:56.402Z,1011.8
2022-09-12T00:03:56.411Z,1011.7
2022-09-12T00:04:56.450Z,1011.8
2022-09-12T00:05:56.397Z,1011.7
2022-09-12T00:06:56.791Z,1011.7
2022-09-12T00:07:56.413Z,1011.7
2022-09-12T00:08:56.399Z,1011.7
2022-09-12T00:09:56.420Z,1011.7
2022-09-12T00:10:56.409Z,1011.7
2022-09-12T00:11:56.404Z,1011.7
2022-09-12T00:12:56.401Z,1011.7
2022-09-12T00:13:56.401Z,1011.7
2022-09-12T00:14:56.425Z,1011.7
2022-09-12T00:15:56.409Z,1011.7
2022-09-12T00:16:56.397Z,1011.7
2022-09-12T00:17:56.411Z,1011.7
2022-09-12T00:18:56.418Z,1011.6
2022-09-12T00:19:56.411Z,1011.7
2022-09-12T00:20:56.405Z,1011.7
2022-09-12T00:22:56.407Z,1011.7
2022-09-12T00:23:56.403Z,1011.6
2022-09-12T00:24:56.418Z,1011.6
2022-09-12T00:25:56.437Z,1011.6
2022-09-12T00:26:56.439Z,1011.6
2022-09-12T00:27:56.406Z,1011.6
2022-09-12T00:28:56.414Z,1011.6
2022-09-12T00:29:56.427Z,1011.6
2022-09-12T00:30:56.411Z,1011.6
2022-09-12T00:31:56.497Z,1011.6
2022-09-12T00:32:56.406Z,1011.6
2022-09-12T00:33:56.409Z,1011.5
2022-09-12T00:34:56.407Z,1011.5
2022-09-12T00:35:56.410Z,1011.5
2022-09-12T00:36:56.418Z,1011.5
2022-09-12T00:37:56.404Z,1011.5
2022-09-12T00:38:56.445Z,1011.5
2022-09-12T00:39:56.490Z,1011.5
2022-09-12T00:40:56.408Z,1011.6
2022-09-12T00:41:56.411Z,1011.5
2022-09-12T00:42:56.400Z,1011.5
2022-09-12T00:43:56.466Z,1011.5
2022-09-12T00:44:56.406Z,1011.5
2022-09-12T00:45:56.474Z,1011.4
2022-09-12T00:46:56.404Z,1011.5
2022-09-12T00:47:56.405Z,1011.4
2022-09-12T00:48:56.418Z,1011.5
2022-09-12T00:49:56.411Z,1011.4
2022-09-12T00:50:56.405Z,1011.5
2022-09-12T00:51:56.401Z,1011.4
2022-09-12T00:52:56.422Z,1011.4
2022-09-12T00:53:56.402Z,1011.4
2022-09-12T00:54:56.407Z,1011.4
2022-09-12T00:55:56.402Z,1011.4
2022-09-12T00:56:56.437Z,1011.4
2022-09-12T00:57:56.402Z,1011.4
2022-09-12T00:58:56.409Z,1011.4
2022-09-12T00:59:56.403Z,1011.4
2022-09-12T01:00:56.488Z,1011.4
2022-09-12T01:01:56.505Z,1011.4
2022-09-12T01:02:57.479Z,1011.3
2022-09-12T01:03:56.410Z,1011.3
2022-09-12T01:04:56.414Z,1011.3
2022-09-12T01:05:56.404Z,1011.3
2022-09-12T01:06:56.419Z,1011.3
2022-09-12T01:07:56.406Z,1011.3
2022-09-12T01:08:56.416Z,1011.4
2022-09-12T01:09:56.405Z,1011.3
2022-09-12T01:10:56.405Z,1011.3
2022-09-12T01:11:56.412Z,1011.3
2022-09-12T01:12:56.411Z,1011.3
2022-09-12T01:13:56.410Z,1011.3
2022-09-12T01:14:56.416Z,1011.3
2022-09-12T01:15:56.420Z,1011.3
2022-09-12T01:16:56.406Z,1011.3
2022-09-12T01:17:56.415Z,1011.3
2022-09-12T01:18:56.411Z,1011.3
2022-09-12T01:19:56.413Z,1011.3
2022-09-12T01:20:56.412Z,1011.3
2022-09-12T01:21:53.626Z,1011.4
2022-09-12T01:22:56.430Z,1011.4
2022-09-12T01:23:56.419Z,1011.3
2022-09-12T01:24:56.409Z,1011.3
2022-09-12T01:25:56.407Z,1011.3
2022-09-12T01:26:56.412Z,1011.3
2022-09-12T01:27:56.433Z,1011.3
2022-09-12T01:28:56.422Z,1011.3
2022-09-12T01:29:56.417Z,1011.2
2022-09-12T01:30:56.449Z,1011.3
2022-09-12T01:31:56.457Z,1011.3
2022-09-12T01:32:56.423Z,1011.3
2022-09-12T01:33:56.417Z,1011.2
2022-09-12T01:34:56.426Z,1011.2
2022-09-12T01:35:56.416Z,1011.2
2022-09-12T01:36:56.416Z,1011.2
2022-09-12T01:37:56.409Z,1011.2
2022-09-12T01:38:56.424Z,1011.2
2022-09-12T01:39:56.472Z,1011.2
2022-09-12T01:40:56.413Z,1011.1
2022-09-12T01:41:56.418Z,1011.2
2022-09-12T01:42:56.402Z,1011.2
2022-09-12T01:43:56.412Z,1011.2
2022-09-12T01:44:56.415Z,1011.2
2022-09-12T01:45:56.472Z,1011.2
2022-09-12T01:46:56.412Z,1011.2
2022-09-12T01:47:56.407Z,1011.1
2022-09-12T01:48:56.415Z,1011.2
2022-09-12T01:49:56.418Z,1011.1
2022-09-12T01:50:56.420Z,1011.1
2022-09-12T01:51:56.420Z,1011.1
2022-09-12T01:52:56.424Z,1011.1
2022-09-12T01:53:56.414Z,1011.1
2022-09-12T01:54:56.420Z,1011.1
2022-09-12T01:55:56.410Z,1011.1
2022-09-12T01:56:56.404Z,1011.1
2022-09-12T01:57:56.415Z,1011.1
2022-09-12T01:58:56.444Z,1011.1
2022-09-12T01:59:56.417Z,1011.1
2022-09-12T02:00:56.443Z,1011.1
2022-09-12T02:01:56.508Z,1011.1
2022-09-12T02:02:56.460Z,1011.1
2022-09-12T02:03:56.426Z,1011
2022-09-12T02:04:56.448Z,1011
2022-09-12T02:05:56.410Z,1011
2022-09-12T02:06:56.421Z,1011
2022-09-12T02:07:56.465Z,1011
2022-09-12T02:08:56.427Z,1011
2022-09-12T02:09:56.414Z,1011
2022-09-12T02:10:56.415Z,1010.9
2022-09-12T02:11:56.426Z,1010.9
2022-09-12T02:12:56.803Z,1010.9
2022-09-12T02:13:56.431Z,1010.9
2022-09-12T02:14:56.425Z,1010.9
2022-09-12T02:15:56.416Z,1010.9
2022-09-12T02:16:56.428Z,1010.9
2022-09-12T02:17:56.434Z,1010.9
2022-09-12T02:18:56.423Z,1010.8
2022-09-12T02:19:56.425Z,1010.8
2022-09-12T02:20:56.414Z,1010.9
2022-09-12T02:21:56.416Z,1010.9
2022-09-12T02:22:56.422Z,1010.8
2022-09-12T02:23:56.429Z,1010.9
2022-09-12T02:24:56.418Z,1010.8
2022-09-12T02:25:56.425Z,1010.8
2022-09-12T02:26:56.413Z,1010.9
2022-09-12T02:27:56.416Z,1010.9
2022-09-12T02:28:56.425Z,1010.9
2022-09-12T02:29:56.454Z,1010.9
2022-09-12T02:30:56.558Z,1010.9
2022-09-12T02:31:56.424Z,1010.9
2022-09-12T02:32:56.415Z,1010.9
2022-09-12T02:33:56.423Z,1010.9
2022-09-12T02:34:56.455Z,1010.9
2022-09-12T02:35:56.420Z,1010.9
2022-09-12T02:36:56.421Z,1010.8
2022-09-12T02:37:56.427Z,1010.8
2022-09-12T02:38:56.422Z,1010.8
2022-09-12T02:39:56.459Z,1010.9
2022-09-12T02:40:56.412Z,1010.8
2022-09-12T02:41:56.425Z,1010.8
2022-09-12T02:42:56.422Z,1010.8
2022-09-12T02:43:56.444Z,1010.8
2022-09-12T02:44:56.425Z,1010.8
2022-09-12T02:45:56.519Z,1010.8
2022-09-12T02:46:56.422Z,1010.8
2022-09-12T02:47:56.419Z,1010.8
2022-09-12T02:48:56.418Z,1010.8
2022-09-12T02:49:56.447Z,1010.8
2022-09-12T02:50:56.428Z,1010.8
2022-09-12T02:51:56.427Z,1010.8
2022-09-12T02:52:56.461Z,1010.8
2022-09-12T02:53:56.428Z,1010.8
2022-09-12T02:54:56.422Z,1010.8
2022-09-12T02:55:56.430Z,1010.7
2022-09-12T02:56:56.428Z,1010.7
2022-09-12T02:57:56.431Z,1010.7
2022-09-12T02:58:56.428Z,1010.7
2022-09-12T02:59:56.418Z,1010.7
2022-09-12T03:00:56.502Z,1010.7
2022-09-12T03:01:56.461Z,1010.7
2022-09-12T03:02:56.428Z,1010.7
2022-09-12T03:03:56.426Z,1010.7
2022-09-12T03:04:56.421Z,1010.7
2022-09-12T03:05:56.415Z,1010.7
2022-09-12T03:06:56.423Z,1010.7
2022-09-12T03:07:56.421Z,1010.7
2022-09-12T03:08:56.433Z,1010.7
2022-09-12T03:09:56.413Z,1010.7
2022-09-12T03:10:56.418Z,1010.7
2022-09-12T03:11:56.420Z,1010.7
2022-09-12T03:12:56.420Z,1010.7
2022-09-12T03:13:56.457Z,1010.7
2022-09-12T03:14:56.446Z,1010.7
2022-09-12T03:15:56.426Z,1010.7
2022-09-12T03:16:56.422Z,1010.7
2022-09-12T03:17:56.430Z,1010.7
2022-09-12T03:18:56.425Z,1010.7
2022-09-12T03:19:56.415Z,1010.6
2022-09-12T03:20:56.416Z,1010.6
2022-09-12T03:21:56.426Z,1010.6
2022-09-12T03:22:56.423Z,1010.6
2022-09-12T03:23:56.421Z,1010.6
2022-09-12T03:24:56.416Z,1010.6
2022-09-12T03:25:56.429Z,1010.6
2022-09-12T03:26:56.422Z,1010.7
2022-09-12T03:27:56.433Z,1010.7
2022-09-12T03:28:56.425Z,1010.7
2022-09-12T03:29:56.425Z,1010.6
2022-09-12T03:30:56.659Z,1010.6
2022-09-12T03:31:56.449Z,1010.6
2022-09-12T03:32:56.419Z,1010.6
2022-09-12T03:33:56.434Z,1010.6
2022-09-12T03:34:56.425Z,1010.7
2022-09-12T03:35:56.423Z,1010.6
2022-09-12T03:36:56.420Z,1010.6
2022-09-12T03:37:56.463Z,1010.6
2022-09-12T03:38:56.425Z,1010.6
2022-09-12T03:39:56.492Z,1010.7
2022-09-12T03:40:56.419Z,1010.7
2022-09-12T03:41:56.428Z,1010.6
2022-09-12T03:42:56.432Z,1010.7
2022-09-12T03:43:56.432Z,1010.7
2022-09-12T03:44:56.419Z,1010.7
2022-09-12T03:45:56.466Z,1010.6
2022-09-12T03:46:56.427Z,1010.6
2022-09-12T03:47:56.427Z,1010.6
2022-09-12T03:48:56.427Z,1010.6
2022-09-12T03:49:56.421Z,1010.6
2022-09-12T03:50:56.429Z,1010.7
2022-09-12T03:51:56.426Z,1010.7
2022-09-12T03:53:56.426Z,1010.6
2022-09-12T03:54:56.427Z,1010.6
2022-09-12T03:55:56.429Z,1010.7
2022-09-12T03:56:56.427Z,1010.6
2022-09-12T03:57:56.429Z,1010.6
2022-09-12T03:58:56.423Z,1010.6
2022-09-12T03:59:56.448Z,1010.6
2022-09-12T04:00:56.535Z,1010.6
2022-09-12T04:01:56.467Z,1010.6
2022-09-12T04:02:56.446Z,1010.6
2022-09-12T04:03:56.434Z,1010.6
2022-09-12T04:04:56.428Z,1010.6
2022-09-12T04:05:56.434Z,1010.6
2022-09-12T04:06:56.436Z,1010.6
2022-09-12T04:07:56.597Z,1010.6
2022-09-12T04:08:56.431Z,1010.5
2022-09-12T04:09:56.426Z,1010.5
2022-09-12T04:10:56.437Z,1010.5
2022-09-12T04:11:56.439Z,1010.5
2022-09-12T04:12:56.436Z,1010.5
2022-09-12T04:13:56.437Z,1010.5
2022-09-12T04:14:56.438Z,1010.5
2022-09-12T04:15:56.438Z,1010.5
2022-09-12T04:16:56.449Z,1010.5
2022-09-12T04:17:56.424Z,1010.5
2022-09-12T04:18:56.429Z,1010.5
2022-09-12T04:19:56.437Z,1010.5
2022-09-12T04:20:56.438Z,1010.5
2022-09-12T04:21:56.464Z,1010.5
2022-09-12T04:22:56.429Z,1010.5
2022-09-12T04:23:56.433Z,1010.5
2022-09-12T04:24:56.430Z,1010.5
2022-09-12T04:25:56.433Z,1010.5
2022-09-12T04:26:56.427Z,1010.5
2022-09-12T04:27:56.451Z,1010.5
2022-09-12T04:28:56.432Z,1010.5
2022-09-12T04:29:56.433Z,1010.5
2022-09-12T04:30:56.485Z,1010.5
2022-09-12T04:31:56.430Z,1010.5
2022-09-12T04:32:56.436Z,1010.5
2022-09-12T04:33:56.452Z,1010.4
2022-09-12T04:34:56.438Z,1010.4
2022-09-12T04:35:56.435Z,1010.5
2022-09-12T04:36:56.430Z,1010.4
2022-09-12T04:37:56.432Z,1010.4
2022-09-12T04:38:56.429Z,1010.4
2022-09-12T04:39:56.445Z,1010.4
2022-09-12T04:40:56.432Z,1010.4
2022-09-12T04:41:56.430Z,1010.4
2022-09-12T04:42:56.488Z,1010.4
2022-09-12T04:43:56.426Z,1010.4
2022-09-12T04:44:56.434Z,1010.4
2022-09-12T04:45:56.484Z,1010.4
2022-09-12T04:46:56.445Z,1010.4
2022-09-12T04:47:56.429Z,1010.4
2022-09-12T04:48:57.182Z,1010.4
2022-09-12T04:49:56.435Z,1010.3
2022-09-12T04:50:56.440Z,1010.3
2022-09-12T04:51:56.433Z,1010.3
2022-09-12T04:52:56.484Z,1010.3
2022-09-12T04:53:56.438Z,1010.3
2022-09-12T04:54:56.428Z,1010.3
2022-09-12T04:55:56.436Z,1010.3
2022-09-12T04:56:56.434Z,1010.2
2022-09-12T04:57:56.447Z,1010.3
2022-09-12T04:58:56.430Z,1010.3
2022-09-12T04:59:56.722Z,1010.3
2022-09-12T05:00:56.487Z,1010.3
2022-09-12T05:01:56.523Z,1010.3
2022-09-12T05:02:56.429Z,1010.3
2022-09-12T05:03:56.437Z,1010.3
2022-09-12T05:04:56.457Z,1010.3
2022-09-12T05:05:56.682Z,1010.3
2022-09-12T05:06:56.435Z,1010.3
2022-09-12T05:07:56.438Z,1010.3
2022-09-12T05:08:56.430Z,1010.3
2022-09-12T05:09:56.449Z,1010.2
2022-09-12T05:10:56.439Z,1010.2
2022-09-12T05:12:04.940Z,1010.2
2022-09-12T05:12:56.438Z,1010.2
2022-09-12T05:13:56.436Z,1010.2
2022-09-12T05:14:56.435Z,1010.2
2022-09-12T05:15:56.442Z,1010.2
2022-09-12T05:16:56.481Z,1010.2
2022-09-12T05:17:56.437Z,1010.2
2022-09-12T05:18:56.434Z,1010.2
2022-09-12T05:19:56.488Z,1010.2
2022-09-12T05:20:56.442Z,1010.2
2022-09-12T05:21:56.441Z,1010.2
2022-09-12T05:22:56.441Z,1010.2
2022-09-12T05:23:56.432Z,1010.1
2022-09-12T05:24:56.472Z,1010.1
2022-09-12T05:25:56.442Z,1010.1
2022-09-12T05:26:56.455Z,1010.1
2022-09-12T05:27:56.441Z,1010.1
2022-09-12T05:28:56.446Z,1010.1
2022-09-12T05:29:56.451Z,1010.1
2022-09-12T05:30:56.520Z,1010.2
2022-09-12T05:31:56.445Z,1010.1
2022-09-12T05:32:56.443Z,1010.2
2022-09-12T05:33:56.432Z,1010.2
2022-09-12T05:34:56.438Z,1010.1
2022-09-12T05:35:56.468Z,1010.1
2022-09-12T05:36:56.438Z,1010.1
2022-09-12T05:37:56.443Z,1010.1
2022-09-12T05:38:56.435Z,1010.1
2022-09-12T05:39:56.507Z,1010.1
2022-09-12T05:40:56.439Z,1010.1
2022-09-12T05:41:56.439Z,1010.1
2022-09-12T05:42:56.436Z,1010.1
2022-09-12T05:43:56.435Z,1010.1
2022-09-12T05:44:56.436Z,1010.1
2022-09-12T05:45:56.490Z,1010.1
2022-09-12T05:46:56.470Z,1010.1
2022-09-12T05:47:56.442Z,1010.1
2022-09-12T05:48:56.926Z,1010.1
2022-09-12T05:49:56.440Z,1010.1
2022-09-12T05:50:56.437Z,1010.2
2022-09-12T05:51:56.501Z,1010.2
2022-09-12T05:52:56.457Z,1010.1
2022-09-12T05:53:56.438Z,1010.2
2022-09-12T05:54:56.441Z,1010.2
2022-09-12T05:55:56.449Z,1010.2
2022-09-12T05:56:56.436Z,1010.2
2022-09-12T05:57:56.444Z,1010.2
2022-09-12T05:58:56.442Z,1010.2
2022-09-12T05:59:56.434Z,1010.2
2022-09-12T06:00:56.442Z,1010.2
2022-09-12T06:01:56.474Z,1010.3
2022-09-12T06:02:56.447Z,1010.3
2022-09-12T06:03:56.444Z,1010.3
2022-09-12T06:04:56.440Z,1010.3
2022-09-12T06:05:56.461Z,1010.4
2022-09-12T06:06:56.461Z,1010.3
2022-09-12T06:07:56.442Z,1010.3
2022-09-12T06:08:56.442Z,1010.3
2022-09-12T06:09:56.439Z,1010.3
2022-09-12T06:10:59.249Z,1010.3
2022-09-12T06:11:56.454Z,1010.3
2022-09-12T06:12:56.437Z,1010.3
2022-09-12T06:13:56.480Z,1010.4
2022-09-12T06:14:56.444Z,1010.3
2022-09-12T06:15:56.469Z,1010.3
2022-09-12T06:17:56.435Z,1010.3
2022-09-12T06:18:56.494Z,1010.3
2022-09-12T06:19:56.441Z,1010.3
2022-09-12T06:20:56.446Z,1010.3
2022-09-12T06:21:56.456Z,1010.3
2022-09-12T06:22:56.438Z,1010.3
2022-09-12T06:23:56.446Z,1010.3
2022-09-12T06:24:58.090Z,1010.3
2022-09-12T06:25:56.439Z,1010.4
2022-09-12T06:26:56.444Z,1010.4
2022-09-12T06:27:56.446Z,1010.4
2022-09-12T06:28:56.442Z,1010.4
2022-09-12T06:29:56.440Z,1010.3
2022-09-12T06:30:56.473Z,1010.3
2022-09-12T06:31:56.437Z,1010.3
2022-09-12T06:32:56.437Z,1010.3
2022-09-12T06:33:56.435Z,1010.3
2022-09-12T06:34:56.443Z,1010.3
2022-09-12T06:35:56.444Z,1010.2
2022-09-12T06:36:56.446Z,1010.3
2022-09-12T06:37:56.471Z,1010.3
2022-09-12T06:38:56.456Z,1010.3
2022-09-12T06:39:56.500Z,1010.3
2022-09-12T06:40:56.440Z,1010.3
2022-09-12T06:41:56.439Z,1010.3
2022-09-12T06:42:56.450Z,1010.2
2022-09-12T06:43:56.446Z,1010.2
2022-09-12T06:44:56.464Z,1010.2
2022-09-12T06:45:56.551Z,1010.3
2022-09-12T06:46:56.463Z,1010.3
2022-09-12T06:47:56.444Z,1010.3
2022-09-12T06:48:56.444Z,1010.3
2022-09-12T06:49:56.450Z,1010.3
2022-09-12T06:50:56.448Z,1010.3
2022-09-12T06:51:56.441Z,1010.3
2022-09-12T06:52:56.441Z,1010.3
2022-09-12T06:53:56.460Z,1010.3
2022-09-12T06:54:56.442Z,1010.3
2022-09-12T06:55:56.447Z,1010.3
2022-09-12T06:56:56.451Z,1010.3
2022-09-12T06:57:56.450Z,1010.3
2022-09-12T06:58:56.450Z,1010.3
2022-09-12T06:59:56.439Z,1010.3
2022-09-12T07:00:59.107Z,1010.3
2022-09-12T07:01:56.554Z,1010.3
2022-09-12T07:02:56.454Z,1010.3
2022-09-12T07:03:56.444Z,1010.3
2022-09-12T07:04:56.440Z,1010.3
2022-09-12T07:05:56.444Z,1010.3
2022-09-12T07:06:56.441Z,1010.3
2022-09-12T07:07:56.446Z,1010.3
2022-09-12T07:08:56.474Z,1010.3
2022-09-12T07:09:56.443Z,1010.3
2022-09-12T07:10:56.457Z,1010.3
2022-09-12T07:11:56.460Z,1010.3
2022-09-12T07:12:56.450Z,1010.3
2022-09-12T07:13:56.455Z,1010.3
2022-09-12T07:14:56.453Z,1010.4
2022-09-12T07:15:56.459Z,1010.4
2022-09-12T07:16:56.590Z,1010.4
2022-09-12T07:17:56.452Z,1010.4
2022-09-12T07:18:56.451Z,1010.4
2022-09-12T07:19:56.449Z,1010.4
2022-09-12T07:20:56.491Z,1010.4
2022-09-12T07:21:58.638Z,1010.4
2022-09-12T07:22:56.460Z,1010.4
2022-09-12T07:23:56.455Z,1010.4
2022-09-12T07:24:56.459Z,1010.4
2022-09-12T07:25:56.451Z,1010.4
2022-09-12T07:26:56.447Z,1010.4
2022-09-12T07:27:56.447Z,1010.3
2022-09-12T07:29:07.805Z,1010.3
2022-09-12T07:29:56.446Z,1010.3
2022-09-12T07:30:56.511Z,1010.3
2022-09-12T07:31:56.448Z,1010.3
2022-09-12T07:32:56.453Z,1010.3
2022-09-12T07:33:56.612Z,1010.3
2022-09-12T07:34:56.460Z,1010.3
2022-09-12T07:35:56.451Z,1010.3
2022-09-12T07:36:56.464Z,1010.4
2022-09-12T07:37:56.454Z,1010.3
2022-09-12T07:38:57.636Z,1010.3
2022-09-12T07:39:56.532Z,1010.3
2022-09-12T07:40:56.458Z,1010.3
2022-09-12T07:41:56.452Z,1010.3
2022-09-12T07:42:57.133Z,1010.3
2022-09-12T07:43:56.466Z,1010.3
2022-09-12T07:44:56.453Z,1010.3
2022-09-12T07:45:56.532Z,1010.3
2022-09-12T07:46:56.472Z,1010.3
2022-09-12T07:47:56.458Z,1010.3
2022-09-12T07:48:56.462Z,1010.3
2022-09-12T07:49:56.456Z,1010.2
2022-09-12T07:50:56.462Z,1010.3
2022-09-12T07:51:56.460Z,1010.3
2022-09-12T07:52:56.463Z,1010.3
2022-09-12T07:53:56.589Z,1010.3
2022-09-12T07:54:56.461Z,1010.3
2022-09-12T07:55:56.454Z,1010.3
2022-09-12T07:56:56.457Z,1010.3
2022-09-12T07:57:56.465Z,1010.4
2022-09-12T07:58:56.454Z,1010.3
2022-09-12T07:59:56.455Z,1010.4
2022-09-12T08:00:56.459Z,1010.4
2022-09-12T08:01:56.454Z,1010.3
2022-09-12T08:02:56.517Z,1010.4
2022-09-12T08:03:56.457Z,1010.4
2022-09-12T08:04:56.458Z,1010.4
2022-09-12T08:05:56.465Z,1010.3
2022-09-12T08:06:56.456Z,1010.3
2022-09-12T08:07:57.838Z,1010.4
2022-09-12T08:08:56.465Z,1010.4
2022-09-12T08:09:56.546Z,1010.4
2022-09-12T08:10:56.481Z,1010.4
2022-09-12T08:11:56.464Z,1010.4
2022-09-12T08:12:56.465Z,1010.4
2022-09-12T08:13:56.553Z,1010.4
2022-09-12T08:14:56.463Z,1010.4
2022-09-12T08:15:56.493Z,1010.4
2022-09-12T08:16:56.461Z,1010.4
2022-09-12T08:17:56.462Z,1010.4
2022-09-12T08:18:56.469Z,1010.4
2022-09-12T08:19:56.514Z,1010.4
2022-09-12T08:20:56.465Z,1010.4
2022-09-12T08:21:56.465Z,1010.4
2022-09-12T08:22:56.463Z,1010.4
2022-09-12T08:23:56.463Z,1010.4
2022-09-12T08:24:56.465Z,1010.4
2022-09-12T08:25:56.463Z,1010.4
2022-09-12T08:26:56.469Z,1010.4
2022-09-12T08:27:56.470Z,1010.4
2022-09-12T08:28:56.476Z,1010.4
2022-09-12T08:29:56.464Z,1010.4
2022-09-12T08:30:56.488Z,1010.4
2022-09-12T08:31:57.419Z,1010.4
2022-09-12T08:32:56.473Z,1010.4
2022-09-12T08:33:56.471Z,1010.3
2022-09-12T08:34:56.468Z,1010.3
2022-09-12T08:35:56.466Z,1010.3
2022-09-12T08:36:56.468Z,1010.3
2022-09-12T08:37:56.477Z,1010.3
2022-09-12T08:38:59.687Z,1010.4
2022-09-12T08:39:56.580Z,1010.3
2022-09-12T08:40:56.469Z,1010.3
2022-09-12T08:41:56.497Z,1010.3
2022-09-12T08:43:57.076Z,1010.3
2022-09-12T08:44:56.488Z,1010.3
2022-09-12T08:45:56.524Z,1010.3
2022-09-12T08:46:56.471Z,1010.3
2022-09-12T08:47:56.476Z,1010.3
2022-09-12T08:48:56.477Z,1010.3
2022-09-12T08:49:56.478Z,1010.3
2022-09-12T08:50:56.483Z,1010.3
2022-09-12T08:51:56.476Z,1010.3
2022-09-12T08:52:56.477Z,1010.3
2022-09-12T08:53:56.482Z,1010.2
2022-09-12T08:54:56.475Z,1010.2
2022-09-12T08:55:56.468Z,1010.2
2022-09-12T08:56:56.476Z,1010.2
2022-09-12T08:57:56.481Z,1010.3
2022-09-12T08:58:56.477Z,1010.3
2022-09-12T08:59:56.476Z,1010.3
2022-09-12T09:00:56.485Z,1010.3
2022-09-12T09:01:56.503Z,1010.3
2022-09-12T09:02:56.537Z,1010.3
2022-09-12T09:03:56.481Z,1010.3
2022-09-12T09:04:56.479Z,1010.4
2022-09-12T09:05:56.480Z,1010.3
2022-09-12T09:06:56.546Z,1010.3
2022-09-12T09:07:56.483Z,1010.3
2022-09-12T09:08:56.483Z,1010.4
2022-09-12T09:09:56.485Z,1010.4
2022-09-12T09:10:56.484Z,1010.4
2022-09-12T09:11:56.482Z,1010.3
2022-09-12T09:12:56.516Z,1010.3
2022-09-12T09:13:56.491Z,1010.3
2022-09-12T09:14:56.504Z,1010.3
2022-09-12T09:15:56.544Z,1010.3
2022-09-12T09:17:56.503Z,1010.3
2022-09-12T09:18:56.498Z,1010.2
2022-09-12T09:19:56.508Z,1010.3
2022-09-12T09:20:56.493Z,1010.2
2022-09-12T09:21:56.563Z,1010.2
2022-09-12T09:22:56.491Z,1010.3
2022-09-12T09:23:56.502Z,1010.2
2022-09-12T09:24:56.501Z,1010.2
2022-09-12T09:25:56.490Z,1010.2
2022-09-12T09:26:56.498Z,1010.2
2022-09-12T09:27:56.490Z,1010.1
2022-09-12T09:28:56.505Z,1010.2
2022-09-12T09:29:56.491Z,1010.2
2022-09-12T09:30:56.594Z,1010.1
2022-09-12T09:31:56.502Z,1010.1
2022-09-12T09:32:56.526Z,1010.1
2022-09-12T09:33:56.491Z,1010.1
2022-09-12T09:34:56.490Z,1010.2
2022-09-12T09:35:56.502Z,1010.2
2022-09-12T09:36:56.492Z,1010.1
2022-09-12T09:37:58.707Z,1010.1
2022-09-12T09:38:56.499Z,1010.1
2022-09-12T09:39:56.529Z,1010.1
2022-09-12T09:40:56.493Z,1010.1
2022-09-12T09:41:56.500Z,1010.1
2022-09-12T09:42:50.671Z,1010.1
2022-09-12T09:43:56.601Z,1010.1
2022-09-12T09:44:56.496Z,1010.1
2022-09-12T09:45:56.583Z,1010
2022-09-12T09:46:56.502Z,1010
2022-09-12T09:47:56.536Z,1010
2022-09-12T09:48:56.571Z,1010
2022-09-12T09:49:56.499Z,1010
2022-09-12T09:50:56.503Z,1010
2022-09-12T09:51:58.807Z,1010
2022-09-12T09:52:56.503Z,1009.9
2022-09-12T09:53:56.508Z,1009.9
2022-09-12T09:54:56.507Z,1009.9
2022-09-12T09:55:56.506Z,1009.9
2022-09-12T09:56:56.510Z,1009.9
2022-09-12T09:57:56.516Z,1009.9
2022-09-12T09:58:56.505Z,1009.9
2022-09-12T09:59:56.503Z,1009.9
2022-09-12T10:00:56.864Z,1009.9
2022-09-12T10:01:56.506Z,1009.9
2022-09-12T10:02:56.559Z,1009.8
2022-09-12T10:03:56.510Z,1009.8
2022-09-12T10:04:56.512Z,1009.8
2022-09-12T10:05:56.509Z,1009.8
2022-09-12T10:06:56.514Z,1009.8
2022-09-12T10:07:56.527Z,1009.8
2022-09-12T10:08:56.516Z,1009.8
2022-09-12T10:09:56.509Z,1009.8
2022-09-12T10:10:56.511Z,1009.8
2022-09-12T10:11:56.519Z,1009.8
2022-09-12T10:12:56.514Z,1009.8
2022-09-12T10:13:56.518Z,1009.8
2022-09-12T10:14:56.609Z,1009.7
2022-09-12T10:15:56.597Z,1009.8
2022-09-12T10:16:56.512Z,1009.8
2022-09-12T10:17:56.524Z,1009.7
2022-09-12T10:18:56.511Z,1009.7
2022-09-12T10:20:17.463Z,1009.7
2022-09-12T10:20:56.558Z,1009.7
2022-09-12T10:21:56.518Z,1009.6
2022-09-12T10:22:56.523Z,1009.6
2022-09-12T10:23:56.518Z,1009.6
2022-09-12T10:24:56.527Z,1009.6
2022-09-12T10:25:56.564Z,1009.6
2022-09-12T10:26:57.121Z,1009.6
2022-09-12T10:27:56.522Z,1009.6
2022-09-12T10:28:56.530Z,1009.6
2022-09-12T10:29:56.531Z,1009.6
2022-09-12T10:30:56.691Z,1009.6
2022-09-12T10:31:56.531Z,1009.6
2022-09-12T10:32:56.524Z,1009.6
2022-09-12T10:33:56.528Z,1009.5
2022-09-12T10:34:56.529Z,1009.5
2022-09-12T10:35:56.528Z,1009.5
2022-09-12T10:36:56.534Z,1009.4
2022-09-12T10:37:56.524Z,1009.5
2022-09-12T10:38:56.525Z,1009.4
2022-09-12T10:39:56.567Z,1009.4
2022-09-12T10:40:56.536Z,1009.4
2022-09-12T10:41:56.532Z,1009.4
2022-09-12T10:42:56.539Z,1009.4
2022-09-12T10:43:56.533Z,1009.4
2022-09-12T10:44:56.524Z,1009.4
2022-09-12T10:45:56.650Z,1009.4
2022-09-12T10:46:56.539Z,1009.3
2022-09-12T10:47:56.540Z,1009.3
2022-09-12T10:48:56.540Z,1009.3
2022-09-12T10:49:56.528Z,1009.3
2022-09-12T10:50:56.535Z,1009.3
2022-09-12T10:51:56.537Z,1009.3
2022-09-12T10:52:56.536Z,1009.3
2022-09-12T10:53:56.534Z,1009.3
2022-09-12T10:54:56.535Z,1009.3
2022-09-12T10:55:56.537Z,1009.3
2022-09-12T10:56:56.529Z,1009.4
2022-09-12T10:57:56.544Z,1009.3
2022-09-12T10:58:56.544Z,1009.4
2022-09-12T10:59:56.535Z,1009.3
2022-09-12T11:00:56.548Z,1009.3
2022-09-12T11:01:56.537Z,1009.2
2022-09-12T11:02:56.596Z,1009.2
2022-09-12T11:03:56.548Z,1009.2
2022-09-12T11:04:56.542Z,1009.2
2022-09-12T11:05:56.572Z,1009.2
2022-09-12T11:06:56.549Z,1009.2
2022-09-12T11:07:56.613Z,1009.2
2022-09-12T11:08:56.545Z,1009.2
2022-09-12T11:09:56.549Z,1009.2
2022-09-12T11:10:56.557Z,1009.2
2022-09-12T11:12:56.543Z,1009.2
2022-09-12T11:13:56.542Z,1009.2
2022-09-12T11:14:56.553Z,1009.1
2022-09-12T11:15:56.629Z,1009.2
2022-09-12T11:16:56.576Z,1009.1
2022-09-12T11:17:56.549Z,1009.1
2022-09-12T11:18:56.550Z,1009.1
2022-09-12T11:19:56.552Z,1009
2022-09-12T11:20:56.557Z,1009
2022-09-12T11:21:56.554Z,1009
2022-09-12T11:22:56.547Z,1009
2022-09-12T11:23:56.549Z,1009
2022-09-12T11:24:56.553Z,1009
2022-09-12T11:25:56.564Z,1009
2022-09-12T11:26:56.554Z,1009
2022-09-12T11:27:56.558Z,1009
2022-09-12T11:28:56.549Z,1009
2022-09-12T11:29:56.559Z,1009
2022-09-12T11:30:56.599Z,1009
2022-09-12T11:31:56.557Z,1009
2022-09-12T11:32:56.609Z,1008.9
2022-09-12T11:33:57.006Z,1008.9
2022-09-12T11:34:56.564Z,1008.9
2022-09-12T11:35:56.562Z,1008.9
2022-09-12T11:36:56.576Z,1008.9
2022-09-12T11:37:56.577Z,1008.9
2022-09-12T11:38:56.563Z,1008.8
2022-09-12T11:39:56.622Z,1008.9
2022-09-12T11:40:56.589Z,1008.9
2022-09-12T11:41:56.576Z,1008.9
2022-09-12T11:42:56.568Z,1008.8
2022-09-12T11:43:57.543Z,1008.8
2022-09-12T11:44:56.561Z,1008.9
2022-09-12T11:45:56.622Z,1008.8
2022-09-12T11:46:56.559Z,1008.8
2022-09-12T11:47:56.589Z,1008.7
2022-09-12T11:48:56.565Z,1008.7
2022-09-12T11:49:56.613Z,1008.7
2022-09-12T11:50:56.568Z,1008.7
2022-09-12T11:51:56.566Z,1008.7
2022-09-12T11:52:56.570Z,1008.7
2022-09-12T11:53:56.584Z,1008.7
2022-09-12T11:54:56.561Z,1008.7
2022-09-12T11:55:56.571Z,1008.7
2022-09-12T11:57:56.570Z,1008.7
2022-09-12T11:58:56.570Z,1008.7
2022-09-12T11:59:56.570Z,1008.7
2022-09-12T12:00:56.571Z,1008.7
2022-09-12T12:01:56.567Z,1008.7
2022-09-12T12:02:56.576Z,1008.8
2022-09-12T12:03:56.634Z,1008.7
2022-09-12T12:04:56.574Z,1008.7
2022-09-12T12:05:56.573Z,1008.7
2022-09-12T12:06:56.568Z,1008.7
2022-09-12T12:07:56.575Z,1008.6
2022-09-12T12:08:56.574Z,1008.6
2022-09-12T12:10:56.574Z,1008.6
2022-09-12T12:11:56.578Z,1008.6
2022-09-12T12:12:56.580Z,1008.6
2022-09-12T12:13:56.569Z,1008.6
2022-09-12T12:14:56.574Z,1008.6
2022-09-12T12:15:56.726Z,1008.6
2022-09-12T12:16:56.578Z,1008.6
2022-09-12T12:17:56.572Z,1008.6
2022-09-12T12:18:56.603Z,1008.6
2022-09-12T12:19:57.779Z,1008.6
2022-09-12T12:20:56.580Z,1008.5
2022-09-12T12:21:56.591Z,1008.5
2022-09-12T12:22:56.574Z,1008.5
2022-09-12T12:23:56.624Z,1008.5
2022-09-12T12:24:56.577Z,1008.5
2022-09-12T12:25:56.586Z,1008.6
2022-09-12T12:26:56.595Z,1008.6
2022-09-12T12:27:56.581Z,1008.5
2022-09-12T12:28:56.595Z,1008.5
2022-09-12T12:29:56.580Z,1008.5
2022-09-12T12:30:56.698Z,1008.6
2022-09-12T12:31:56.576Z,1008.5
2022-09-12T12:32:56.589Z,1008.4
2022-09-12T12:33:56.592Z,1008.5
2022-09-12T12:34:56.589Z,1008.4
2022-09-12T12:35:56.584Z,1008.4
2022-09-12T12:36:56.579Z,1008.5
2022-09-12T12:37:56.595Z,1008.4
2022-09-12T12:38:56.586Z,1008.3